Time;durP1;ratioP1;P1;durP2;ratioP2;P2;SDS_P1;SDS_P2;PMS_P1;PMS_P2;Temp;Humidity;BMP_temperature;BMP_pressure;BME280_temperature;BME280_humidity;BME280_pressure;Samples;Min_cycle;Max_cycle;Signal;HPM_P1;HPM_P2
2023/06/12 00:01:29;;;;;;;8.52;7.70;;;538.00;2406.40;;;;;;5054161;28;20029;-82
2023/06/12 00:03:57;;;;;;;8.98;7.75;;;538.10;2406.40;;;;;;5054356;28;20116;-81
2023/06/12 00:06:23;;;;;;;9.48;7.68;;;538.00;2406.40;;;;;;5054058;28;20064;-80
2023/06/12 00:08:49;;;;;;;8.32;7.47;;;537.90;2406.40;;;;;;5054052;28;20457;-82
2023/06/12 00:11:16;;;;;;;9.23;7.28;;;537.90;2406.40;;;;;;5053970;28;20032;-80
2023/06/12 00:13:44;;;;;;;7.50;6.70;;;537.90;2406.40;;;;;;5054047;28;20037;-81
2023/06/12 00:16:10;;;;;;;7.30;6.60;;;537.80;2406.40;;;;;;5054938;28;20453;-80
2023/06/12 00:18:38;;;;;;;7.45;6.70;;;537.80;2406.40;;;;;;5054090;28;20021;-81
2023/06/12 00:21:08;;;;;;;8.70;7.38;;;537.80;2406.40;;;;;;5053885;28;20408;-81
2023/06/12 00:23:34;;;;;;;12.85;7.32;;;537.80;2406.40;;;;;;5053753;28;20476;-82
2023/06/12 00:25:59;;;;;;;9.65;7.78;;;537.80;2406.40;;;;;;5055167;28;20112;-81
2023/06/12 00:28:25;;;;;;;8.05;7.25;;;537.80;2406.40;;;;;;5053882;28;20029;-80
2023/06/12 00:30:51;;;;;;;7.95;7.10;;;537.80;2406.40;;;;;;5039558;28;20065;-81
2023/06/12 00:33:17;;;;;;;7.70;6.85;;;537.80;2406.40;;;;;;5033914;28;20021;-81
2023/06/12 00:35:43;;;;;;;9.68;6.60;;;537.80;2406.40;;;;;;5033605;28;20445;-82
2023/06/12 00:38:09;;;;;;;9.50;6.82;;;537.80;2406.40;;;;;;5040252;28;20029;-80
2023/06/12 00:40:35;;;;;;;8.32;7.05;;;537.80;2406.40;;;;;;5053564;28;20453;-80
2023/06/12 00:43:00;;;;;;;6.80;6.10;;;537.80;2406.40;;;;;;5053537;28;20029;-81
2023/06/12 00:45:26;;;;;;;8.45;7.63;;;537.80;2406.40;;;;;;5053309;28;20453;-80
2023/06/12 00:47:56;;;;;;;9.65;7.10;;;537.70;2406.40;;;;;;5053584;28;20025;-82
2023/06/12 00:50:28;;;;;;;10.15;6.95;;;512.90;2380.80;;;;;;5066443;28;20025;-81
2023/06/12 00:52:55;;;;;;;;;;;512.50;2380.80;;;;;;5079099;28;20032;-80
2023/06/12 00:55:21;;;;;;;10.13;6.80;;;512.40;2380.80;;;;;;5060812;28;20434;-80
2023/06/12 00:57:48;;;;;;;7.40;6.20;;;512.40;2380.80;;;;;;5059096;28;20078;-79
2023/06/12 01:00:17;;;;;;;9.02;6.68;;;512.20;2380.80;;;;;;5056330;28;20032;-81
2023/06/12 01:03:04;;;;;;;7.18;6.30;;;512.20;2380.80;;;;;;5053276;28;20025;-81
2023/06/12 01:05:34;;;;;;;8.50;6.63;;;487.30;2380.80;;;;;;5052646;28;20440;-80
2023/06/12 01:08:15;;;;;;;8.73;6.57;;;487.20;2380.80;;;;;;5053232;28;20461;-81
2023/06/12 01:10:58;;;;;;;7.78;6.30;;;487.30;2380.80;;;;;;5054070;28;20055;-80
2023/06/12 01:13:24;;;;;;;8.02;6.03;;;512.00;2380.80;;;;;;5052765;28;20033;-81
2023/06/12 01:15:50;;;;;;;7.22;5.88;;;487.10;2380.80;;;;;;5053092;28;20396;-80
2023/06/12 01:18:17;;;;;;;7.78;6.07;;;512.50;2380.80;;;;;;5052884;28;20384;-80
2023/06/12 01:20:43;;;;;;;10.05;5.75;;;512.10;2380.80;;;;;;5052691;28;20025;-81
2023/06/12 01:23:44;;;;;;;8.82;5.70;;;512.00;2380.80;;;;;;5052995;28;20033;-80
2023/06/12 01:27:03;;;;;;;7.80;5.70;;;512.10;2380.80;;;;;;5053942;28;20025;-81
2023/06/12 01:29:52;;;;;;;8.10;5.93;;;512.30;2380.80;;;;;;5053845;28;20349;-81
2023/06/12 01:32:19;;;;;;;8.23;5.53;;;512.30;2380.80;;;;;;5052803;28;20472;-82
2023/06/12 01:34:57;;;;;;;6.43;5.22;;;512.30;2380.80;;;;;;5052687;28;20070;-81
2023/06/12 01:37:44;;;;;;;7.97;5.80;;;512.40;2380.80;;;;;;5052577;28;20029;-81
2023/06/12 01:40:12;;;;;;;10.68;6.32;;;512.50;2380.80;;;;;;5052398;28;20047;-81
2023/06/12 01:42:40;;;;;;;10.38;6.43;;;512.50;2380.80;;;;;;5052657;28;20075;-80
2023/06/12 01:45:06;;;;;;;7.45;5.93;;;512.40;2380.80;;;;;;5051445;28;20055;-81
2023/06/12 01:47:32;;;;;;;8.23;6.13;;;512.50;2380.80;;;;;;5053661;28;20029;-82
2023/06/12 01:49:58;;;;;;;9.20;6.50;;;512.40;2380.80;;;;;;5053573;28;20477;-80
2023/06/12 01:52:24;;;;;;;10.57;6.22;;;512.40;2380.80;;;;;;5069105;28;20029;-82
2023/06/12 01:54:50;;;;;;;9.50;6.10;;;512.40;2380.80;;;;;;5069092;28;20025;-80
2023/06/12 01:57:20;;;;;;;9.57;6.45;;;512.30;2380.80;;;;;;5068669;28;20030;-81
2023/06/12 01:59:46;;;;;;;9.80;6.45;;;512.30;2380.80;;;;;;5068854;28;20424;-80
2023/06/12 02:02:12;;;;;;;9.23;6.15;;;512.20;2380.80;;;;;;5069063;28;20025;-81
2023/06/12 02:04:38;;;;;;;9.32;6.13;;;512.20;2380.80;;;;;;5071899;28;20048;-81
2023/06/12 02:07:05;;;;;;;7.70;6.45;;;512.00;2380.80;;;;;;5057231;28;20132;-80
2023/06/12 02:09:31;;;;;;;9.63;6.35;;;512.00;2380.80;;;;;;5073416;28;20035;-81
2023/06/12 02:11:56;;;;;;;9.50;6.00;;;512.00;2380.80;;;;;;5073205;28;20439;-81
2023/06/12 02:14:23;;;;;;;8.13;6.70;;;512.10;2380.80;;;;;;5073019;28;20026;-81
2023/06/12 02:16:53;;;;;;;9.70;6.32;;;512.00;2380.80;;;;;;5072771;28;20068;-81
2023/06/12 02:19:22;;;;;;;8.52;6.30;;;512.10;2380.80;;;;;;5072894;28;20176;-81
2023/06/12 02:21:49;;;;;;;9.60;6.65;;;512.40;2380.80;;;;;;5072728;28;20025;-80
2023/06/12 02:24:15;;;;;;;9.07;6.72;;;512.20;2380.80;;;;;;5057400;28;20064;-81
2023/06/12 02:26:41;;;;;;;10.10;6.55;;;512.10;2380.80;;;;;;5057463;28;20155;-81
2023/06/12 02:29:09;;;;;;;9.10;6.38;;;512.00;2380.80;;;;;;5056929;28;20053;-81
2023/06/12 02:31:35;;;;;;;10.18;6.45;;;512.20;2380.80;;;;;;5057636;28;20040;-80
2023/06/12 02:34:01;;;;;;;7.80;6.15;;;512.20;2380.80;;;;;;5072791;28;20432;-80
2023/06/12 02:36:28;;;;;;;7.60;6.53;;;512.30;2380.80;;;;;;5057089;28;20449;-81
2023/06/12 02:38:54;;;;;;;8.25;6.00;;;512.30;2380.80;;;;;;5072854;28;20119;-81
2023/06/12 02:41:20;;;;;;;10.93;6.50;;;512.40;2380.80;;;;;;5072518;28;20124;-81
2023/06/12 02:43:45;;;;;;;9.13;6.05;;;512.30;2380.80;;;;;;5072260;28;20151;-80
2023/06/12 02:46:11;;;;;;;7.57;6.28;;;512.30;2380.80;;;;;;5072574;28;20095;-81
2023/06/12 02:48:37;;;;;;;9.70;6.55;;;512.30;2380.80;;;;;;5072111;28;20055;-82
2023/06/12 02:51:03;;;;;;;10.07;7.43;;;512.30;2380.80;;;;;;5072463;28;20052;-84
2023/06/12 02:53:29;;;;;;;7.45;6.10;;;512.40;2380.80;;;;;;5072839;28;20457;-82
2023/06/12 02:55:55;;;;;;;8.38;6.95;;;512.30;2380.80;;;;;;5070603;28;20060;-85
2023/06/12 02:58:20;;;;;;;8.00;6.72;;;512.30;2380.80;;;;;;5055918;28;20491;-84
2023/06/12 03:00:46;;;;;;;9.93;6.85;;;512.30;2380.80;;;;;;5055130;28;20029;-82
2023/06/12 03:03:12;;;;;;;8.00;7.07;;;512.20;2380.80;;;;;;5055418;28;20060;-83
2023/06/12 03:05:39;;;;;;;11.25;7.18;;;512.10;2380.80;;;;;;5056387;28;20060;-83
2023/06/12 03:08:05;;;;;;;7.57;6.47;;;512.20;2380.80;;;;;;5055946;28;20032;-81
2023/06/12 03:10:31;;;;;;;7.25;6.50;;;512.20;2380.80;;;;;;5056615;28;20108;-83
2023/06/12 03:12:56;;;;;;;9.40;6.57;;;512.20;2380.80;;;;;;5056974;28;20063;-83
2023/06/12 03:15:22;;;;;;;7.78;6.38;;;512.30;2380.80;;;;;;5055029;28;20029;-82
2023/06/12 03:17:48;;;;;;;9.05;6.35;;;512.30;2380.80;;;;;;5055283;28;20494;-82
2023/06/12 03:20:15;;;;;;;8.40;6.38;;;512.20;2380.80;;;;;;5056577;28;20035;-81
2023/06/12 03:22:41;;;;;;;7.80;7.00;;;512.30;2380.80;;;;;;5056709;28;20487;-82
2023/06/12 03:25:09;;;;;;;11.02;7.15;;;512.10;2380.80;;;;;;5055061;28;20028;-83
2023/06/12 03:27:35;;;;;;;8.70;7.30;;;512.10;2380.80;;;;;;5055386;28;20036;-82
2023/06/12 03:30:00;;;;;;;12.50;7.18;;;512.00;2380.80;;;;;;5055076;28;20029;-81
2023/06/12 03:32:27;;;;;;;10.43;8.13;;;487.30;2380.80;;;;;;5051454;28;20021;-84
2023/06/12 03:34:54;;;;;;;10.45;7.53;;;512.00;2380.80;;;;;;5071616;28;20071;-81
2023/06/12 03:37:20;;;;;;;13.98;8.43;;;512.00;2380.80;;;;;;5071756;28;20143;-82
2023/06/12 03:39:45;;;;;;;10.80;9.02;;;487.30;2380.80;;;;;;5071551;28;20130;-83
2023/06/12 03:42:11;;;;;;;9.23;8.32;;;512.00;2380.80;;;;;;5071744;28;20033;-82
2023/06/12 03:44:37;;;;;;;10.90;8.30;;;512.10;2380.80;;;;;;5071357;28;20024;-83
2023/06/12 03:47:03;;;;;;;8.75;7.70;;;512.10;2380.80;;;;;;5071579;28;20021;-82
2023/06/12 03:49:29;;;;;;;9.73;8.68;;;512.00;2380.80;;;;;;5071486;28;20029;-81
2023/06/12 03:51:55;;;;;;;18.17;8.65;;;512.10;2380.80;;;;;;5071574;28;20075;-82
2023/06/12 03:54:21;;;;;;;12.25;8.70;;;487.30;2380.80;;;;;;5072749;28;20021;-82
2023/06/12 03:56:48;;;;;;;12.23;8.98;;;487.30;2380.80;;;;;;5071793;28;20025;-83
2023/06/12 03:59:13;;;;;;;11.75;8.20;;;512.10;2380.80;;;;;;5062958;28;20025;-81
2023/06/12 04:01:42;;;;;;;9.85;7.63;;;512.20;2380.80;;;;;;5050962;28;20033;-81
2023/06/12 04:04:09;;;;;;;11.65;8.60;;;512.20;2380.80;;;;;;5050511;28;20083;-82
2023/06/12 04:06:40;;;;;;;9.15;8.18;;;512.20;2380.80;;;;;;5051008;28;20049;-82
2023/06/12 04:09:09;;;;;;;14.48;9.52;;;512.20;2380.80;;;;;;5036039;28;20026;-83
2023/06/12 04:11:38;;;;;;;10.02;9.00;;;512.20;2380.80;;;;;;5051354;28;20029;-82
2023/06/12 04:14:05;;;;;;;11.90;9.90;;;512.10;2380.80;;;;;;5050763;28;20022;-83
2023/06/12 04:16:31;;;;;;;12.52;9.05;;;512.20;2380.80;;;;;;5034740;28;20384;-82
2023/06/12 04:19:02;;;;;;;11.57;9.10;;;512.00;2380.80;;;;;;5051160;28;20037;-81
2023/06/12 04:21:27;;;;;;;11.15;10.02;;;512.10;2380.80;;;;;;5050758;28;20044;-81
2023/06/12 04:23:53;;;;;;;11.60;10.00;;;487.30;2380.80;;;;;;5034593;28;20021;-82
2023/06/12 04:26:20;;;;;;;15.75;10.43;;;487.10;2380.80;;;;;;5033252;28;20087;-81
2023/06/12 04:28:47;;;;;;;13.98;10.27;;;487.00;2380.80;;;;;;5035291;28;20504;-81
2023/06/12 04:31:16;;;;;;;13.80;11.32;;;487.10;2380.80;;;;;;5037116;28;20029;-81
2023/06/12 04:33:42;;;;;;;11.05;9.93;;;487.00;2380.80;;;;;;5033926;28;20454;-84
2023/06/12 04:36:13;;;;;;;11.77;10.25;;;487.10;2380.80;;;;;;5033580;28;20071;-83
2023/06/12 04:38:39;;;;;;;14.57;11.32;;;487.00;2380.80;;;;;;5034087;28;20028;-84
2023/06/12 04:41:11;;;;;;;12.07;10.88;;;486.90;2380.80;;;;;;5034651;28;20416;-84
2023/06/12 04:43:38;;;;;;;10.57;9.57;;;486.80;2380.80;;;;;;5033937;28;20029;-84
2023/06/12 04:46:05;;;;;;;12.93;10.43;;;487.10;2380.80;;;;;;5033787;28;20033;-83
2023/06/12 04:48:31;;;;;;;17.92;10.98;;;487.00;2380.80;;;;;;5034619;28;20025;-82
2023/06/12 04:50:58;;;;;;;16.00;11.13;;;487.10;2380.80;;;;;;5033802;28;20041;-80
2023/06/12 04:53:29;;;;;;;11.77;10.57;;;487.20;2380.80;;;;;;5033860;28;20029;-83
2023/06/12 04:55:58;;;;;;;14.25;10.68;;;487.10;2380.80;;;;;;5056351;28;20009;-83
2023/06/12 04:58:24;;;;;;;12.95;10.82;;;487.00;2380.80;;;;;;5047941;28;20033;-83
2023/06/12 05:00:55;;;;;;;12.93;11.55;;;487.10;2380.80;;;;;;5037177;28;20461;-83
2023/06/12 05:03:22;;;;;;;13.38;12.00;;;487.00;2380.80;;;;;;5037108;28;20436;-83
2023/06/12 05:05:48;;;;;;;14.25;12.77;;;486.90;2380.80;;;;;;5035074;28;20060;-81
2023/06/12 05:08:14;;;;;;;14.35;12.10;;;487.00;2380.80;;;;;;5033986;28;20026;-84
2023/06/12 05:10:40;;;;;;;11.85;10.57;;;487.00;2380.80;;;;;;5035664;28;20029;-84
2023/06/12 05:13:06;;;;;;;14.82;12.45;;;487.10;2380.80;;;;;;5033391;28;20124;-83
2023/06/12 05:15:32;;;;;;;16.20;11.40;;;487.20;2380.80;;;;;;5033149;28;20072;-81
2023/06/12 05:17:58;;;;;;;10.70;9.20;;;487.20;2380.80;;;;;;5033203;28;20426;-83
2023/06/12 05:20:25;;;;;;;12.95;10.43;;;487.30;2380.80;;;;;;5033162;28;20037;-82
2023/06/12 05:22:51;;;;;;;12.75;10.15;;;487.30;2380.80;;;;;;5033108;28;20462;-82
2023/06/12 05:25:17;;;;;;;13.25;10.68;;;512.10;2380.80;;;;;;5033088;28;20030;-82
2023/06/12 05:27:42;;;;;;;12.50;11.15;;;512.10;2380.80;;;;;;5034270;28;20029;-82
2023/06/12 05:30:09;;;;;;;13.25;11.95;;;512.20;2380.80;;;;;;5031957;28;20021;-81
2023/06/12 05:32:35;;;;;;;12.15;10.35;;;512.20;2380.80;;;;;;5033891;28;20059;-86
2023/06/12 05:35:02;;;;;;;11.65;10.45;;;512.20;2380.80;;;;;;5033195;28;20426;-84
2023/06/12 05:37:28;;;;;;;11.90;9.90;;;512.20;2380.80;;;;;;5033058;28;20029;-83
2023/06/12 05:39:54;;;;;;;11.60;10.35;;;512.20;2380.80;;;;;;5033064;28;20033;-84
2023/06/12 05:42:20;;;;;;;16.35;10.85;;;512.30;2380.80;;;;;;5033109;28;20052;-83
2023/06/12 05:44:46;;;;;;;12.45;11.15;;;512.30;2380.80;;;;;;5032664;28;20025;-85
2023/06/12 05:47:12;;;;;;;15.80;11.93;;;512.40;2380.80;;;;;;5032989;28;20026;-85
2023/06/12 05:49:38;;;;;;;16.45;11.52;;;512.40;2380.80;;;;;;5032912;28;20025;-85
2023/06/12 05:52:06;;;;;;;15.95;11.35;;;512.40;2380.80;;;;;;5032869;28;20025;-83
2023/06/12 05:54:32;;;;;;;15.02;12.05;;;512.40;2380.80;;;;;;5033484;28;20037;-83
2023/06/12 05:56:58;;;;;;;13.20;10.73;;;512.40;2380.80;;;;;;5032919;28;20025;-84
2023/06/12 05:59:24;;;;;;;10.57;9.48;;;512.40;2380.80;;;;;;5041075;28;20025;-82
2023/06/12 06:01:50;;;;;;;9.52;8.48;;;512.30;2380.80;;;;;;5052644;28;20527;-84
2023/06/12 06:04:16;;;;;;;9.32;7.63;;;512.50;2380.80;;;;;;5052689;28;20031;-84
2023/06/12 06:06:42;;;;;;;11.07;7.13;;;512.40;2380.80;;;;;;5053963;28;20053;-84
2023/06/12 06:09:08;;;;;;;8.35;6.00;;;512.50;2380.80;;;;;;5052575;28;20104;-84
2023/06/12 06:11:34;;;;;;;5.72;5.13;;;512.50;2380.80;;;;;;5052453;28;20048;-86
2023/06/12 06:14:00;;;;;;;6.00;5.28;;;512.50;2380.80;;;;;;5052692;28;20025;-83
2023/06/12 06:16:26;;;;;;;7.35;5.57;;;512.50;2380.80;;;;;;5052617;28;20400;-83
2023/06/12 06:18:52;;;;;;;8.75;5.13;;;512.50;2380.80;;;;;;5052576;28;20071;-83
2023/06/12 06:21:18;;;;;;;6.90;6.05;;;512.50;2380.80;;;;;;5052338;28;20427;-83
2023/06/12 06:23:44;;;;;;;5.75;5.15;;;512.60;2380.80;;;;;;5052124;28;20040;-82
2023/06/12 06:26:10;;;;;;;6.22;5.10;;;512.50;2380.80;;;;;;5052346;28;20119;-83
2023/06/12 06:28:36;;;;;;;6.68;4.93;;;512.50;2380.80;;;;;;5053752;28;20079;-83
2023/06/12 06:31:06;;;;;;;5.85;4.97;;;512.60;2380.80;;;;;;5051210;28;20041;-82
2023/06/12 06:33:32;;;;;;;5.18;4.38;;;512.60;2380.80;;;;;;5053707;28;20576;-86
2023/06/12 06:35:58;;;;;;;5.57;4.32;;;512.50;2380.80;;;;;;5069065;28;20049;-86
2023/06/12 06:38:24;;;;;;;6.03;4.88;;;512.50;2380.80;;;;;;5069358;28;20377;-86
2023/06/12 06:40:51;;;;;;;6.32;4.93;;;512.60;2380.80;;;;;;5068967;28;20029;-83
2023/06/12 06:43:17;;;;;;;4.93;4.07;;;512.60;2380.80;;;;;;5069061;28;20032;-84
2023/06/12 06:45:43;;;;;;;6.13;4.63;;;512.60;2380.80;;;;;;5069134;28;20160;-84
2023/06/12 06:48:11;;;;;;;5.80;4.05;;;512.60;2380.80;;;;;;5068612;28;20036;-83
2023/06/12 06:50:37;;;;;;;6.75;3.65;;;512.80;2380.80;;;;;;5071591;28;20024;-84
2023/06/12 06:53:03;;;;;;;5.03;3.10;;;512.60;2380.80;;;;;;5072474;28;20040;-83
2023/06/12 06:55:29;;;;;;;4.95;3.63;;;512.80;2380.80;;;;;;5072723;28;20021;-84
2023/06/12 06:57:55;;;;;;;5.10;3.80;;;512.80;2380.80;;;;;;5072650;28;20453;-84
2023/06/12 07:00:24;;;;;;;4.97;3.80;;;512.90;2380.80;;;;;;5072442;28;20036;-82
2023/06/12 07:02:50;;;;;;;5.32;4.03;;;537.60;2406.40;;;;;;5072226;28;20033;-84
2023/06/12 07:05:16;;;;;;;5.10;4.10;;;537.70;2406.40;;;;;;5072343;28;20045;-82
2023/06/12 07:07:49;;;;;;;6.30;3.80;;;537.70;2406.40;;;;;;5072224;28;20044;-83
2023/06/12 07:10:15;;;;;;;6.88;3.90;;;537.60;2406.40;;;;;;5072141;28;20036;-84
2023/06/12 07:12:41;;;;;;;4.65;3.38;;;512.80;2380.80;;;;;;5072233;28;20028;-79
2023/06/12 07:15:08;;;;;;;6.18;3.70;;;512.70;2380.80;;;;;;5071480;28;20457;-81
2023/06/12 07:17:33;;;;;;;7.05;3.85;;;512.70;2380.80;;;;;;5056414;28;20039;-81
2023/06/12 07:19:59;;;;;;;5.43;3.75;;;512.70;2380.80;;;;;;5071963;28;20029;-83
2023/06/12 07:22:27;;;;;;;5.93;3.55;;;512.80;2380.80;;;;;;5071863;28;20035;-81
2023/06/12 07:24:53;;;;;;;5.32;3.50;;;512.80;2380.80;;;;;;5071408;28;20024;-80
2023/06/12 07:27:19;;;;;;;4.93;3.45;;;512.90;2380.80;;;;;;5056469;28;20080;-82
2023/06/12 07:29:45;;;;;;;6.20;3.90;;;537.60;2406.40;;;;;;5054937;28;20052;-82
2023/06/12 07:32:11;;;;;;;4.78;3.35;;;512.90;2380.80;;;;;;5055938;28;20036;-81
2023/06/12 07:34:37;;;;;;;4.97;3.30;;;512.90;2380.80;;;;;;5054807;28;20024;-81
2023/06/12 07:37:04;;;;;;;6.63;3.13;;;512.90;2380.80;;;;;;5054567;28;20469;-80
2023/06/12 07:39:30;;;;;;;4.65;3.10;;;537.60;2406.40;;;;;;5054710;28;20033;-81
2023/06/12 07:41:56;;;;;;;6.38;2.92;;;512.90;2380.80;;;;;;5055772;28;20078;-80
2023/06/12 07:44:22;;;;;;;4.00;2.65;;;512.90;2380.80;;;;;;5053707;28;20029;-79
2023/06/12 07:46:48;;;;;;;3.95;2.63;;;537.60;2406.40;;;;;;5071393;28;20468;-84
2023/06/12 07:49:15;;;;;;;4.15;2.70;;;512.90;2380.80;;;;;;5071141;28;20029;-81
2023/06/12 07:51:41;;;;;;;3.30;2.30;;;512.90;2380.80;;;;;;5055223;28;20029;-79
2023/06/12 07:54:07;;;;;;;3.53;2.20;;;512.90;2380.80;;;;;;5055807;28;20036;-80
2023/06/12 07:56:35;;;;;;;4.70;2.20;;;512.90;2380.80;;;;;;5054231;28;20029;-79
2023/06/12 07:59:09;;;;;;;3.97;2.22;;;512.90;2380.80;;;;;;5050338;28;20048;-79
2023/06/12 08:01:36;;;;;;;4.65;2.38;;;512.90;2380.80;;;;;;5034456;28;20452;-80
2023/06/12 08:04:03;;;;;;;5.13;3.92;;;512.90;2380.80;;;;;;5034219;28;20156;-81
2023/06/12 08:06:33;;;;;;;6.32;5.10;;;512.80;2380.80;;;;;;5034132;28;20045;-79
2023/06/12 08:08:58;;;;;;;7.07;6.32;;;512.90;2380.80;;;;;;5035024;28;20025;-78
2023/06/12 08:11:25;;;;;;;3.88;2.75;;;512.90;2380.80;;;;;;5054458;28;20539;-81
2023/06/12 08:13:51;;;;;;;4.30;2.72;;;512.90;2380.80;;;;;;5054035;28;20025;-81
2023/06/12 08:16:18;;;;;;;4.60;2.40;;;537.90;2406.40;;;;;;5054364;28;20055;-80
2023/06/12 08:18:45;;;;;;;4.07;2.10;;;512.90;2380.80;;;;;;5053945;28;20036;-82
2023/06/12 08:21:11;;;;;;;4.30;2.70;;;512.90;2380.80;;;;;;5055320;28;20033;-82
2023/06/12 08:23:36;;;;;;;3.17;2.17;;;512.90;2380.80;;;;;;5054067;28;20033;-81
2023/06/12 08:26:04;;;;;;;3.50;2.25;;;512.90;2380.80;;;;;;5053675;28;20033;-80
2023/06/12 08:28:33;;;;;;;5.47;2.80;;;512.90;2380.80;;;;;;5053910;28;20481;-79
2023/06/12 08:31:01;;;;;;;6.57;3.17;;;537.60;2406.40;;;;;;5053740;28;20029;-80
2023/06/12 08:33:30;;;;;;;6.65;3.10;;;537.70;2406.40;;;;;;5053528;28;20116;-80
2023/06/12 08:36:00;;;;;;;4.47;2.50;;;537.70;2406.40;;;;;;5054878;28;20381;-79
2023/06/12 08:38:26;;;;;;;4.05;2.75;;;537.80;2406.40;;;;;;5053602;28;20021;-79
2023/06/12 08:41:00;;;;;;;5.55;2.70;;;537.70;2406.40;;;;;;5052981;28;20056;-79
2023/06/12 08:43:29;;;;;;;6.05;3.20;;;537.70;2406.40;;;;;;5053687;28;20033;-79
2023/06/12 08:45:57;;;;;;;11.40;10.13;;;537.70;2406.40;;;;;;5053236;28;20039;-79
2023/06/12 08:48:26;;;;;;;6.25;5.40;;;537.70;2406.40;;;;;;5053348;28;20159;-81
2023/06/12 08:50:52;;;;;;;6.55;4.38;;;537.70;2406.40;;;;;;5053273;28;20090;-82
2023/06/12 08:53:19;;;;;;;4.70;3.90;;;537.80;2406.40;;;;;;5053917;28;20090;-79
2023/06/12 08:55:45;;;;;;;5.00;4.00;;;537.80;2406.40;;;;;;5053917;28;20033;-80
2023/06/12 08:58:11;;;;;;;5.55;4.15;;;537.80;2406.40;;;;;;5059388;28;20484;-80
2023/06/12 09:00:37;;;;;;;4.30;3.47;;;537.90;2406.40;;;;;;5066960;28;20112;-78
2023/06/12 09:03:06;;;;;;;6.45;5.30;;;537.80;2406.40;;;;;;5078217;28;20017;-79
2023/06/12 09:05:34;;;;;;;12.55;10.20;;;538.00;2406.40;;;;;;5059534;28;20060;-79
2023/06/12 09:08:02;;;;;;;8.77;7.00;;;538.00;2406.40;;;;;;5053006;28;20033;-80
2023/06/12 09:10:29;;;;;;;7.57;5.40;;;538.00;2406.40;;;;;;5054918;28;20025;-82
2023/06/12 09:12:56;;;;;;;6.63;5.25;;;538.00;2406.40;;;;;;5052415;28;20029;-80
2023/06/12 09:15:23;;;;;;;6.50;4.63;;;538.00;2406.40;;;;;;5052664;28;20067;-80
2023/06/12 09:17:53;;;;;;;5.20;4.35;;;538.10;2406.40;;;;;;5054133;28;20031;-79
2023/06/12 09:20:27;;;;;;;7.28;5.80;;;538.20;2406.40;;;;;;5052933;28;20049;-80
2023/06/12 09:22:54;;;;;;;5.25;3.97;;;538.10;2406.40;;;;;;5051948;28;20083;-79
2023/06/12 09:25:21;;;;;;;7.55;4.30;;;538.20;2406.40;;;;;;5052684;28;20456;-79
2023/06/12 09:27:47;;;;;;;10.38;4.70;;;538.10;2406.40;;;;;;5052726;28;20047;-79
2023/06/12 09:30:13;;;;;;;9.20;6.22;;;538.10;2406.40;;;;;;5053367;28;20453;-80
2023/06/12 09:32:45;;;;;;;7.15;4.63;;;538.20;2406.40;;;;;;5069275;28;20029;-79
2023/06/12 09:35:14;;;;;;;5.88;4.60;;;538.20;2406.40;;;;;;5048277;28;20070;-80
2023/06/12 09:37:41;;;;;;;7.50;4.35;;;538.20;2406.40;;;;;;5050348;28;20119;-79
2023/06/12 09:40:14;;;;;;;5.40;4.22;;;538.20;2406.40;;;;;;5052274;28;20020;-80
2023/06/12 09:42:42;;;;;;;7.53;4.10;;;538.20;2406.40;;;;;;5049145;28;20132;-78
2023/06/12 09:45:16;;;;;;;6.45;4.22;;;538.20;2406.40;;;;;;5052179;28;20361;-80
2023/06/12 09:47:48;;;;;;;5.93;5.13;;;538.30;2406.40;;;;;;5050792;28;20031;-79
2023/06/12 09:50:18;;;;;;;10.88;9.95;;;538.40;2406.40;;;;;;5049325;28;20547;-78
2023/06/12 09:52:46;;;;;;;7.28;5.00;;;538.50;2406.40;;;;;;5033851;28;20033;-80
2023/06/12 09:55:15;;;;;;;6.60;4.38;;;538.50;2406.40;;;;;;5032535;28;20422;-80
2023/06/12 09:57:50;;;;;;;6.25;4.65;;;538.50;2406.40;;;;;;5032046;28;20017;-81
2023/06/12 10:00:17;;;;;;;5.78;4.55;;;538.50;2406.40;;;;;;5047969;28;20052;-81
2023/06/12 10:02:52;;;;;;;7.53;5.63;;;538.50;2406.40;;;;;;5068922;28;20483;-80
2023/06/12 10:05:24;;;;;;;5.32;4.22;;;563.20;2432.00;;;;;;5068782;28;20566;-82
2023/06/12 10:07:59;;;;;;;6.13;4.50;;;563.20;2432.00;;;;;;5068996;28;20033;-83
2023/06/12 10:10:26;;;;;;;5.32;4.25;;;563.20;2432.00;;;;;;5052071;28;20032;-83
2023/06/12 10:12:53;;;;;;;7.50;3.95;;;538.50;2406.40;;;;;;5068921;28;20025;-83
2023/06/12 10:15:20;;;;;;;7.47;4.82;;;538.50;2406.40;;;;;;5069054;28;20098;-80
2023/06/12 10:17:47;;;;;;;8.50;5.32;;;538.50;2406.40;;;;;;5068702;28;20033;-80
2023/06/12 10:20:14;;;;;;;5.32;4.70;;;538.40;2406.40;;;;;;5068974;28;20036;-79
2023/06/12 10:22:40;;;;;;;6.82;5.57;;;538.40;2406.40;;;;;;5053460;28;20032;-80
2023/06/12 10:25:08;;;;;;;6.90;5.03;;;538.30;2406.40;;;;;;5070586;28;20025;-81
2023/06/12 10:27:36;;;;;;;5.25;4.05;;;538.30;2406.40;;;;;;5072728;28;20098;-80
2023/06/12 10:30:04;;;;;;;4.63;3.88;;;538.20;2406.40;;;;;;5073023;28;20495;-80
2023/06/12 10:32:32;;;;;;;4.25;3.10;;;538.20;2406.40;;;;;;5057154;28;20137;-79
2023/06/12 10:34:58;;;;;;;4.53;3.20;;;538.10;2406.40;;;;;;5072742;28;20032;-80
2023/06/12 10:37:27;;;;;;;4.43;3.30;;;538.20;2406.40;;;;;;5072765;28;20021;-79
2023/06/12 10:40:10;;;;;;;3.97;3.10;;;538.30;2406.40;;;;;;5072712;28;20033;-80
2023/06/12 10:42:40;;;;;;;3.75;2.88;;;538.30;2406.40;;;;;;5072885;28;20029;-81
2023/06/12 10:45:28;;;;;;;4.03;2.92;;;538.20;2406.40;;;;;;5072439;28;20048;-79
2023/06/12 10:48:05;;;;;;;4.30;3.35;;;538.30;2406.40;;;;;;5052950;28;20033;-81
2023/06/12 10:50:40;;;;;;;5.22;3.00;;;538.40;2406.40;;;;;;5072520;28;20025;-78
2023/06/12 10:53:09;;;;;;;5.75;3.88;;;538.50;2406.40;;;;;;5072147;28;20068;-80
2023/06/12 10:55:36;;;;;;;6.97;3.05;;;563.20;2432.00;;;;;;5072360;28;20086;-80
2023/06/12 10:58:07;;;;;;;3.60;2.50;;;563.40;2432.00;;;;;;5072397;28;20029;-81
2023/06/12 11:00:36;;;;;;;4.10;2.95;;;563.50;2432.00;;;;;;5056702;28;20036;-79
2023/06/12 11:03:12;;;;;;;5.00;3.10;;;563.60;2432.00;;;;;;5072148;28;20039;-81
2023/06/12 11:06:08;;;;;;;4.32;3.15;;;563.60;2432.00;;;;;;5071812;28;20094;-81
2023/06/12 11:08:34;;;;;;;6.53;3.00;;;563.70;2432.00;;;;;;5056792;28;20035;-78
2023/06/12 11:11:06;;;;;;;4.63;2.95;;;563.80;2432.00;;;;;;5077345;28;20465;-77
2023/06/12 11:13:32;;;;;;;6.68;2.42;;;563.80;2432.00;;;;;;5078885;28;20119;-77
2023/06/12 11:15:58;;;;;;;4.82;2.53;;;563.80;2432.00;;;;;;5077395;28;20053;-78
2023/06/12 11:18:23;;;;;;;8.75;2.78;;;563.80;2432.00;;;;;;5077462;28;20076;-77
2023/06/12 11:20:54;;;;;;;5.18;2.40;;;563.90;2432.00;;;;;;5078283;28;20032;-77
2023/06/12 11:23:28;;;;;;;3.47;2.17;;;564.10;2432.00;;;;;;5073531;28;20033;-80
2023/06/12 11:25:55;;;;;;;5.57;2.10;;;588.80;2432.00;;;;;;5071765;28;20025;-80
2023/06/12 11:28:26;;;;;;;3.45;1.98;;;564.10;2432.00;;;;;;5071424;28;20027;-81
2023/06/12 11:30:53;;;;;;;3.42;2.05;;;564.10;2432.00;;;;;;5071891;28;20032;-79
2023/06/12 11:33:21;;;;;;;4.93;2.10;;;564.00;2432.00;;;;;;5071641;28;20108;-81
2023/06/12 11:35:56;;;;;;;5.53;1.80;;;564.10;2432.00;;;;;;5071027;28;20061;-82
2023/06/12 11:38:22;;;;;;;4.07;2.00;;;564.10;2432.00;;;;;;5056204;28;20055;-79
2023/06/12 11:40:51;;;;;;;4.65;2.03;;;564.10;2432.00;;;;;;5055962;28;20033;-79
2023/06/12 11:43:19;;;;;;;3.35;2.35;;;564.10;2432.00;;;;;;5071678;28;20033;-80
2023/06/12 11:45:46;;;;;;;4.55;2.03;;;564.10;2432.00;;;;;;5056068;28;20025;-82
2023/06/12 11:48:16;;;;;;;3.17;2.03;;;564.10;2432.00;;;;;;5055888;28;20387;-81
2023/06/12 11:50:45;;;;;;;3.10;1.80;;;564.10;2432.00;;;;;;5071046;28;20040;-82
2023/06/12 11:53:12;;;;;;;3.55;1.85;;;588.90;2432.00;;;;;;5054646;28;20032;-79
2023/06/12 11:55:38;;;;;;;5.50;2.20;;;589.00;2432.00;;;;;;5055153;28;20047;-82
2023/06/12 11:58:04;;;;;;;4.97;2.17;;;589.00;2432.00;;;;;;5070769;28;20488;-80
2023/06/12 12:00:32;;;;;;;3.97;1.98;;;589.00;2432.00;;;;;;5055682;28;20029;-80
2023/06/12 12:03:09;;;;;;;7.38;2.55;;;589.10;2432.00;;;;;;5033948;28;20033;-79
2023/06/12 12:05:37;;;;;;;5.35;2.42;;;588.90;2432.00;;;;;;5035419;28;20490;-81
2023/06/12 12:08:04;;;;;;;3.85;1.88;;;588.80;2432.00;;;;;;5034412;28;20120;-78
2023/06/12 12:10:41;;;;;;;3.72;2.03;;;588.90;2432.00;;;;;;5033974;28;20061;-80
2023/06/12 12:13:07;;;;;;;3.60;1.73;;;588.90;2432.00;;;;;;5034444;28;20028;-80
2023/06/12 12:15:39;;;;;;;4.32;2.53;;;589.00;2432.00;;;;;;5033780;28;20398;-81
2023/06/12 12:18:13;;;;;;;3.10;2.10;;;589.20;2432.00;;;;;;5034275;28;20112;-79